createdAt,value
2023-02-18T00:01:32.211Z,6.30
2023-02-18T00:04:00.313Z,7.13
2023-02-18T00:06:30.277Z,6.65
2023-02-18T00:08:58.962Z,5.30
2023-02-18T00:11:25.960Z,6.57
2023-02-18T00:13:54.238Z,6.72
2023-02-18T00:16:22.007Z,6.25
2023-02-18T00:18:49.388Z,5.85
2023-02-18T00:21:16.480Z,7.97
2023-02-18T00:23:44.121Z,4.88
2023-02-18T00:26:16.077Z,5.13
2023-02-18T00:28:43.279Z,4.68
2023-02-18T00:31:16.125Z,5.25
2023-02-18T00:33:43.043Z,4.28
2023-02-18T00:36:12.597Z,4.40
2023-02-18T00:38:39.846Z,5.18
2023-02-18T00:41:06.937Z,5.07
2023-02-18T00:43:33.567Z,4.65
2023-02-18T00:46:00.339Z,3.40
2023-02-18T00:48:27.088Z,6.63
2023-02-18T00:50:53.883Z,7.18
2023-02-18T00:53:22.607Z,5.80
2023-02-18T00:55:51.439Z,6.40
2023-02-18T00:58:18.684Z,4.53
2023-02-18T01:00:46.111Z,4.28
2023-02-18T01:03:13.378Z,4.38
2023-02-18T01:05:40.344Z,5.43
2023-02-18T01:08:08.201Z,6.30
2023-02-18T01:10:36.344Z,5.22
2023-02-18T01:13:04.420Z,5.45
2023-02-18T01:15:31.309Z,6.03
2023-02-18T01:17:58.122Z,6.13
2023-02-18T01:20:24.920Z,6.95
2023-02-18T01:22:51.531Z,5.28
2023-02-18T01:25:18.174Z,6.50
2023-02-18T01:27:44.837Z,6.45
2023-02-18T01:30:14.805Z,5.05
2023-02-18T01:32:41.599Z,4.65
2023-02-18T01:35:11.126Z,4.68
2023-02-18T01:37:37.775Z,5.68
2023-02-18T01:40:05.534Z,4.97
2023-02-18T01:42:32.253Z,4.05
2023-02-18T01:45:35.837Z,6.88
2023-02-18T01:48:13.947Z,5.93
2023-02-18T01:50:45.845Z,5.78
2023-02-18T01:53:16.898Z,6.68
2023-02-18T01:55:44.385Z,6.57
2023-02-18T01:58:13.415Z,6.93
2023-02-18T02:00:40.605Z,4.50
2023-02-18T02:03:07.606Z,5.22
2023-02-18T02:05:34.861Z,7.07
2023-02-18T02:08:02.926Z,4.65
2023-02-18T02:10:51.174Z,4.53
2023-02-18T02:13:37.018Z,5.78
2023-02-18T02:16:08.723Z,4.82
2023-02-18T02:18:57.769Z,3.40
2023-02-18T02:21:33.430Z,4.45
2023-02-18T02:24:18.672Z,5.45
2023-02-18T02:26:51.109Z,3.45
2023-02-18T02:29:36.569Z,6.22
2023-02-18T02:32:45.502Z,4.07
2023-02-18T02:35:33.980Z,4.32
2023-02-18T02:38:07.535Z,5.25
2023-02-18T02:40:58.684Z,5.63
2023-02-18T02:43:32.801Z,5.15
2023-02-18T02:46:15.334Z,5.55
2023-02-18T02:48:56.393Z,4.65
2023-02-18T02:51:32.284Z,3.58
2023-02-18T02:54:19.116Z,4.18
2023-02-18T02:56:46.041Z,4.07
2023-02-18T02:59:22.508Z,4.30
2023-02-18T03:02:14.162Z,6.05
2023-02-18T03:04:55.841Z,3.78
2023-02-18T03:07:56.309Z,4.47
2023-02-18T03:10:44.534Z,5.32
2023-02-18T03:13:42.213Z,3.70
2023-02-18T03:16:26.937Z,4.57
2023-02-18T03:19:05.539Z,4.53
2023-02-18T03:21:41.412Z,4.45
2023-02-18T03:24:18.579Z,6.03
2023-02-18T03:26:52.501Z,4.32
2023-02-18T03:29:21.040Z,6.20
2023-02-18T03:31:52.854Z,6.00
2023-02-18T03:34:26.383Z,6.05
2023-02-18T03:36:54.181Z,4.75
2023-02-18T03:39:23.287Z,6.05
2023-02-18T03:41:50.044Z,7.30
2023-02-18T03:44:16.677Z,7.95
2023-02-18T03:46:45.401Z,7.13
2023-02-18T03:49:13.935Z,6.03
2023-02-18T03:51:41.239Z,9.05
2023-02-18T03:54:09.254Z,12.25
2023-02-18T03:56:37.234Z,7.50
2023-02-18T03:59:04.477Z,8.32
2023-02-18T04:01:31.543Z,6.30
2023-02-18T04:03:58.295Z,7.57
2023-02-18T04:06:25.360Z,7.10
2023-02-18T04:08:52.077Z,6.72
2023-02-18T04:11:18.681Z,7.28
2023-02-18T04:13:45.383Z,7.40
2023-02-18T04:16:12.506Z,7.10
2023-02-18T04:18:39.151Z,4.38
2023-02-18T04:21:06.063Z,6.28
2023-02-18T04:23:32.704Z,5.35
2023-02-18T04:25:59.299Z,6.38
2023-02-18T04:28:25.930Z,7.88
2023-02-18T04:30:52.631Z,4.90
2023-02-18T04:33:19.215Z,5.85
2023-02-18T04:35:46.290Z,5.85
2023-02-18T04:38:12.968Z,5.40
2023-02-18T04:40:39.691Z,6.78
2023-02-18T04:43:06.349Z,5.03
2023-02-18T04:45:33.087Z,5.32
2023-02-18T04:47:59.702Z,4.30
2023-02-18T04:50:26.446Z,4.07
2023-02-18T04:52:53.145Z,4.25
2023-02-18T04:55:19.886Z,4.50
2023-02-18T04:57:46.556Z,3.05
2023-02-18T05:00:17.189Z,4.60
2023-02-18T05:02:44.920Z,3.30
2023-02-18T05:05:12.598Z,2.55
2023-02-18T05:07:40.265Z,3.10
2023-02-18T05:10:07.608Z,3.75
2023-02-18T05:12:34.198Z,2.67
2023-02-18T05:15:00.832Z,3.47
2023-02-18T05:17:27.445Z,3.17
2023-02-18T05:19:54.054Z,2.17
2023-02-18T05:22:20.635Z,3.25
2023-02-18T05:24:47.380Z,2.97
2023-02-18T05:27:14.031Z,2.13
2023-02-18T05:29:40.685Z,3.13
2023-02-18T05:32:07.340Z,2.65
2023-02-18T05:34:33.973Z,2.85
2023-02-18T05:37:00.587Z,2.95
2023-02-18T05:39:27.175Z,2.08
2023-02-18T05:41:53.839Z,2.03
2023-02-18T05:44:32.626Z,2.70
2023-02-18T05:47:01.345Z,3.72
2023-02-18T05:49:29.531Z,2.20
2023-02-18T05:51:56.356Z,2.00
2023-02-18T05:54:23.111Z,2.67
2023-02-18T05:56:49.835Z,1.92
2023-02-18T05:59:16.591Z,2.38
2023-02-18T06:01:43.424Z,2.58
2023-02-18T06:04:10.142Z,2.38
2023-02-18T06:06:37.096Z,2.85
2023-02-18T06:09:05.256Z,2.47
2023-02-18T06:11:32.101Z,2.08
2023-02-18T06:13:59.145Z,2.45
2023-02-18T06:16:26.051Z,2.80
2023-02-18T06:18:52.869Z,2.47
2023-02-18T06:21:19.912Z,1.73
2023-02-18T06:23:46.696Z,2.80
2023-02-18T06:26:13.716Z,3.17
2023-02-18T06:28:40.414Z,2.85
2023-02-18T06:31:07.512Z,2.40
2023-02-18T06:33:34.175Z,2.22
2023-02-18T06:36:07.297Z,3.53
2023-02-18T06:38:38.525Z,1.70
2023-02-18T06:41:06.159Z,1.73
2023-02-18T06:43:33.029Z,2.42
2023-02-18T06:45:59.668Z,3.22
2023-02-18T06:48:26.416Z,2.15
2023-02-18T06:50:53.140Z,2.70
2023-02-18T06:53:19.750Z,2.20
2023-02-18T06:55:46.588Z,2.63
2023-02-18T06:58:14.673Z,2.33
2023-02-18T07:00:41.576Z,2.25
2023-02-18T07:03:08.948Z,2.10
2023-02-18T07:05:35.588Z,2.22
2023-02-18T07:08:02.416Z,1.80
2023-02-18T07:10:29.096Z,2.33
2023-02-18T07:12:55.742Z,2.50
2023-02-18T07:15:24.423Z,1.80
2023-02-18T07:17:52.201Z,1.25
2023-02-18T07:20:19.756Z,3.05
2023-02-18T07:22:46.496Z,1.70
2023-02-18T07:25:13.777Z,1.20
2023-02-18T07:27:40.684Z,1.88
2023-02-18T07:30:08.136Z,1.75
2023-02-18T07:32:36.685Z,1.67
2023-02-18T07:35:05.089Z,1.92
2023-02-18T07:37:32.234Z,1.60
2023-02-18T07:39:59.066Z,2.00
2023-02-18T07:42:25.738Z,2.08
2023-02-18T07:44:52.332Z,1.50
2023-02-18T07:47:19.779Z,1.95
2023-02-18T07:49:47.183Z,2.40
2023-02-18T07:52:15.651Z,2.10
2023-02-18T07:54:42.462Z,1.63
2023-02-18T07:57:09.127Z,1.38
2023-02-18T07:59:35.976Z,1.40
2023-02-18T08:02:03.371Z,1.50
2023-02-18T08:04:30.177Z,1.33
2023-02-18T08:06:56.809Z,1.23
2023-02-18T08:09:23.553Z,1.52
2023-02-18T08:11:50.348Z,2.47
2023-02-18T08:14:17.071Z,1.40
2023-02-18T08:16:43.760Z,2.13
2023-02-18T08:19:10.437Z,1.50
2023-02-18T08:21:37.120Z,1.52
2023-02-18T08:24:04.057Z,1.27
2023-02-18T08:26:30.650Z,1.15
2023-02-18T08:28:57.286Z,1.50
2023-02-18T08:31:27.814Z,1.20
2023-02-18T08:33:56.283Z,1.90
2023-02-18T08:36:23.527Z,1.30
2023-02-18T08:38:50.223Z,1.90
2023-02-18T08:41:18.916Z,1.80
2023-02-18T08:43:46.465Z,1.98
2023-02-18T08:46:16.094Z,1.85
2023-02-18T08:48:44.616Z,2.25
2023-02-18T08:51:23.286Z,2.28
2023-02-18T08:53:50.592Z,1.38
2023-02-18T08:56:17.769Z,1.00
2023-02-18T08:58:44.793Z,1.65
2023-02-18T09:01:13.567Z,2.50
2023-02-18T09:03:40.718Z,1.60
2023-02-18T09:06:07.974Z,1.00
2023-02-18T09:08:34.628Z,2.05
2023-02-18T09:11:04.576Z,1.65
2023-02-18T09:13:32.935Z,1.70
2023-02-18T09:16:01.596Z,2.13
2023-02-18T09:18:28.305Z,1.33
2023-02-18T09:20:59.893Z,2.10
2023-02-18T09:23:29.113Z,1.15
2023-02-18T09:25:56.551Z,2.17
2023-02-18T09:28:24.114Z,1.98
2023-02-18T09:30:50.943Z,1.80
2023-02-18T09:33:18.245Z,1.65
2023-02-18T09:35:46.588Z,1.88
2023-02-18T09:38:16.250Z,2.35
2023-02-18T09:40:48.882Z,1.50
2023-02-18T09:43:34.886Z,2.33
2023-02-18T09:46:02.983Z,2.10
2023-02-18T09:48:33.108Z,1.92
2023-02-18T09:51:00.365Z,1.50
2023-02-18T09:53:27.429Z,1.98
2023-02-18T09:55:56.762Z,1.83
2023-02-18T09:58:42.354Z,1.58
2023-02-18T10:01:36.955Z,1.83
2023-02-18T10:04:18.440Z,1.58
2023-02-18T10:06:49.373Z,1.58
2023-02-18T10:09:20.852Z,1.98
2023-02-18T10:12:00.839Z,1.83
2023-02-18T10:14:27.549Z,2.10
2023-02-18T10:16:54.488Z,1.67
2023-02-18T10:19:23.114Z,2.10
2023-02-18T10:21:51.310Z,2.38
2023-02-18T10:24:33.899Z,1.50
2023-02-18T10:27:03.234Z,2.30
2023-02-18T10:29:32.300Z,1.88
2023-02-18T10:32:12.804Z,2.25
2023-02-18T10:34:50.368Z,1.50
2023-02-18T10:37:32.199Z,2.47
2023-02-18T10:40:14.070Z,2.95
2023-02-18T10:42:55.266Z,2.17
2023-02-18T10:45:39.874Z,2.38
2023-02-18T10:48:31.337Z,3.00
2023-02-18T10:51:01.882Z,2.50
2023-02-18T10:53:43.243Z,2.35
2023-02-18T10:56:29.795Z,1.98
2023-02-18T10:59:06.338Z,2.33
2023-02-18T11:01:33.114Z,2.13
2023-02-18T11:04:16.556Z,2.58
2023-02-18T11:06:49.404Z,2.20
2023-02-18T11:09:30.424Z,2.60
2023-02-18T11:12:29.380Z,2.80
2023-02-18T11:15:19.202Z,2.35
2023-02-18T11:17:49.264Z,2.40
2023-02-18T11:20:24.423Z,3.35
2023-02-18T11:22:51.744Z,2.83
2023-02-18T11:25:24.754Z,3.30
2023-02-18T11:27:58.057Z,2.70
2023-02-18T11:30:40.393Z,3.08
2023-02-18T11:33:31.182Z,2.33
2023-02-18T11:36:03.219Z,3.17
2023-02-18T11:38:36.980Z,2.22
2023-02-18T11:41:17.184Z,2.13
2023-02-18T11:43:48.144Z,2.17
2023-02-18T11:46:24.396Z,1.73
2023-02-18T11:48:52.084Z,2.55
2023-02-18T11:51:26.594Z,2.17
2023-02-18T11:54:04.210Z,1.80
2023-02-18T11:56:34.395Z,1.40
2023-02-18T11:59:03.447Z,2.40
2023-02-18T12:01:45.636Z,2.30
2023-02-18T12:04:15.137Z,2.05
2023-02-18T12:07:19.833Z,2.17
2023-02-18T12:09:50.775Z,1.73
2023-02-18T12:12:27.753Z,2.10
2023-02-18T12:15:01.303Z,2.72
2023-02-18T12:17:31.198Z,1.33
2023-02-18T12:20:21.558Z,2.05
2023-02-18T12:22:58.989Z,2.15
2023-02-18T12:25:45.086Z,1.73
2023-02-18T12:28:42.134Z,1.88
2023-02-18T12:31:46.135Z,2.85
2023-02-18T12:34:30.872Z,2.85
2023-02-18T12:37:05.907Z,2.85
2023-02-18T12:39:56.062Z,2.13
2023-02-18T12:43:21.244Z,1.92
2023-02-18T12:46:09.813Z,2.35
2023-02-18T12:49:04.722Z,2.45
2023-02-18T12:52:18.769Z,1.90
2023-02-18T12:55:14.532Z,2.80
2023-02-18T12:57:52.863Z,2.10
2023-02-18T13:00:40.621Z,2.42
2023-02-18T13:03:29.028Z,2.42
2023-02-18T13:06:09.408Z,2.53
2023-02-18T13:08:56.365Z,1.92
2023-02-18T13:11:36.992Z,2.00
2023-02-18T13:14:21.163Z,1.70
2023-02-18T13:16:52.556Z,2.55
2023-02-18T13:19:24.519Z,2.47
2023-02-18T13:21:56.038Z,2.50
2023-02-18T13:24:43.188Z,2.83
2023-02-18T13:27:26.084Z,2.83
2023-02-18T13:30:20.569Z,2.10
2023-02-18T13:32:59.514Z,2.33
2023-02-18T13:35:45.264Z,1.45
2023-02-18T13:38:30.129Z,1.70
2023-02-18T13:43:28.278Z,2.75
2023-02-18T13:46:24.846Z,3.55
2023-02-18T13:49:03.884Z,1.90
2023-02-18T13:51:40.944Z,2.88
2023-02-18T13:54:15.425Z,3.17
2023-02-18T13:56:46.828Z,2.25
2023-02-18T13:59:24.425Z,2.25
2023-02-18T14:01:53.111Z,1.85
2023-02-18T14:04:42.227Z,2.50
2023-02-18T14:07:36.017Z,1.90
2023-02-18T14:10:05.557Z,2.35
2023-02-18T14:12:57.930Z,3.35
2023-02-18T14:15:24.861Z,3.15
2023-02-18T14:18:20.476Z,2.97
2023-02-18T14:20:51.320Z,3.00
2023-02-18T14:23:20.902Z,1.58
2023-02-18T14:25:55.332Z,2.67
2023-02-18T14:28:33.765Z,3.08
2023-02-18T14:33:51.698Z,4.00
2023-02-18T14:37:07.797Z,2.22
2023-02-18T14:39:37.140Z,2.75
2023-02-18T14:42:12.916Z,1.95
2023-02-18T14:44:57.821Z,3.20
2023-02-18T14:47:46.700Z,4.03
2023-02-18T14:50:16.551Z,4.10
2023-02-18T14:52:47.313Z,3.58
2023-02-18T14:55:24.442Z,5.90
2023-02-18T14:58:08.285Z,5.47
2023-02-18T15:00:41.082Z,4.53
2023-02-18T15:03:20.314Z,4.82
2023-02-18T15:05:47.360Z,4.22
2023-02-18T15:08:22.815Z,5.05
2023-02-18T15:10:55.623Z,4.90
2023-02-18T15:13:26.990Z,3.58
2023-02-18T15:16:00.242Z,4.88
2023-02-18T15:18:51.983Z,4.13
2023-02-18T15:21:24.807Z,4.05
2023-02-18T15:23:52.065Z,4.88
2023-02-18T15:26:18.943Z,5.80
2023-02-18T15:28:59.618Z,4.63
2023-02-18T15:31:28.448Z,4.28
2023-02-18T15:33:55.751Z,4.53
2023-02-18T15:36:22.434Z,5.55
2023-02-18T15:38:49.172Z,3.67
2023-02-18T15:41:17.826Z,3.83
2023-02-18T15:44:05.699Z,3.28
2023-02-18T15:46:32.946Z,5.03
2023-02-18T15:49:01.055Z,3.95
2023-02-18T15:51:32.094Z,5.07
2023-02-18T15:54:02.834Z,2.85
2023-02-18T15:56:41.504Z,4.47
2023-02-18T15:59:35.271Z,4.28
2023-02-18T16:02:22.924Z,4.45
2023-02-18T16:05:00.251Z,4.60
2023-02-18T16:07:30.219Z,5.35
2023-02-18T16:10:18.153Z,5.38
2023-02-18T16:12:50.293Z,4.63
2023-02-18T16:15:30.018Z,6.90
2023-02-18T16:17:59.092Z,6.13
2023-02-18T16:20:31.032Z,4.40
2023-02-18T16:23:03.183Z,4.63
2023-02-18T16:25:44.812Z,4.50
2023-02-18T16:28:33.015Z,4.43
2023-02-18T16:30:59.666Z,4.90
2023-02-18T16:33:26.257Z,5.07
2023-02-18T16:35:52.881Z,4.07
2023-02-18T16:38:22.370Z,4.75
2023-02-18T16:40:49.638Z,2.22
2023-02-18T16:43:24.492Z,4.45
2023-02-18T16:45:52.539Z,5.65
2023-02-18T16:48:36.973Z,4.40
2023-02-18T16:51:08.092Z,4.53
2023-02-18T16:53:34.737Z,4.50
2023-02-18T16:56:01.864Z,8.27
2023-02-18T16:58:29.478Z,4.72
2023-02-18T17:00:56.441Z,6.03
2023-02-18T17:03:23.121Z,7.57
2023-02-18T17:05:49.764Z,5.70
2023-02-18T17:08:24.934Z,5.90
2023-02-18T17:10:56.963Z,5.95
2023-02-18T17:13:26.637Z,5.43
2023-02-18T17:15:55.467Z,6.15
2023-02-18T17:18:23.986Z,5.50
2023-02-18T17:20:51.563Z,5.93
2023-02-18T17:23:23.661Z,4.93
2023-02-18T17:25:52.298Z,8.63
2023-02-18T17:28:19.403Z,6.28
2023-02-18T17:31:04.322Z,5.07
2023-02-18T17:33:30.997Z,7.93
2023-02-18T17:35:57.582Z,9.35
2023-02-18T17:38:24.243Z,10.27
2023-02-18T17:40:50.873Z,5.63
2023-02-18T17:43:19.745Z,7.07
2023-02-18T17:45:54.713Z,8.32
2023-02-18T17:48:24.985Z,11.45
2023-02-18T17:50:52.620Z,5.78
2023-02-18T17:53:19.589Z,5.68
2023-02-18T17:55:47.561Z,6.82
2023-02-18T17:58:15.024Z,7.32
2023-02-18T18:00:49.113Z,4.72
2023-02-18T18:03:16.469Z,7.07
2023-02-18T18:05:48.129Z,7.72
2023-02-18T18:08:15.822Z,7.95
2023-02-18T18:10:51.875Z,5.82
2023-02-18T18:13:25.396Z,4.75
2023-02-18T18:15:52.533Z,5.63
2023-02-18T18:18:19.984Z,6.80
2023-02-18T18:20:59.884Z,5.57
2023-02-18T18:23:28.643Z,5.72
2023-02-18T18:25:57.804Z,5.43
2023-02-18T18:28:26.695Z,6.35
2023-02-18T18:30:55.935Z,6.25
2023-02-18T18:33:26.030Z,6.57
2023-02-18T18:35:54.477Z,4.35
2023-02-18T18:38:23.352Z,7.60
2023-02-18T18:40:50.790Z,5.93
2023-02-18T18:43:20.482Z,7.03
2023-02-18T18:45:47.318Z,6.72
2023-02-18T18:48:14.258Z,6.00
2023-02-18T18:50:42.015Z,10.45
2023-02-18T18:53:36.444Z,4.60
2023-02-18T18:56:06.730Z,5.28
2023-02-18T18:58:33.848Z,5.47
2023-02-18T19:01:03.813Z,5.88
2023-02-18T19:03:31.182Z,6.63
2023-02-18T19:05:58.243Z,6.30
2023-02-18T19:08:25.426Z,8.27
2023-02-18T19:10:54.945Z,5.65
2023-02-18T19:13:23.971Z,5.90
2023-02-18T19:15:53.512Z,7.10
2023-02-18T19:18:21.448Z,5.85
2023-02-18T19:20:48.759Z,6.95
2023-02-18T19:23:15.488Z,5.43
2023-02-18T19:25:42.578Z,6.10
2023-02-18T19:28:13.813Z,3.80
2023-02-18T19:30:42.402Z,6.95
2023-02-18T19:33:10.815Z,8.38
2023-02-18T19:35:39.428Z,7.50
2023-02-18T19:38:11.374Z,6.20
2023-02-18T19:40:38.987Z,8.07
2023-02-18T19:43:06.630Z,6.53
2023-02-18T19:45:34.129Z,8.98
2023-02-18T19:48:01.610Z,6.65
2023-02-18T19:50:32.532Z,5.25
2023-02-18T19:53:00.098Z,9.32
2023-02-18T19:55:26.741Z,8.05
2023-02-18T19:57:53.466Z,9.07
2023-02-18T20:00:22.313Z,6.45
2023-02-18T20:02:50.325Z,6.90
2023-02-18T20:05:17.625Z,7.60
2023-02-18T20:07:46.820Z,11.32
2023-02-18T20:10:20.039Z,6.57
2023-02-18T20:12:52.165Z,7.50
2023-02-18T20:15:19.082Z,9.35
2023-02-18T20:17:45.854Z,7.63
2023-02-18T20:20:12.660Z,5.72
2023-02-18T20:22:39.295Z,7.95
2023-02-18T20:25:06.253Z,6.85
2023-02-18T20:27:33.608Z,8.27
2023-02-18T20:30:00.389Z,6.93
2023-02-18T20:32:27.274Z,8.02
2023-02-18T20:34:54.127Z,7.32
2023-02-18T20:37:20.797Z,7.10
2023-02-18T20:39:47.558Z,7.68
2023-02-18T20:42:16.721Z,6.97
2023-02-18T20:44:45.308Z,5.50
2023-02-18T20:47:15.355Z,6.28
2023-02-18T20:49:41.945Z,9.90
2023-02-18T20:52:09.757Z,5.95
2023-02-18T20:54:36.872Z,6.68
2023-02-18T20:57:03.633Z,8.20
2023-02-18T20:59:32.835Z,7.72
2023-02-18T21:02:00.382Z,8.07
2023-02-18T21:04:27.119Z,5.55
2023-02-18T21:06:54.299Z,8.68
2023-02-18T21:09:21.537Z,4.82
2023-02-18T21:11:48.850Z,6.93
2023-02-18T21:14:15.917Z,6.15
2023-02-18T21:16:42.684Z,7.63
2023-02-18T21:19:13.045Z,8.68
2023-02-18T21:21:39.686Z,6.45
2023-02-18T21:24:06.467Z,5.60
2023-02-18T21:26:33.276Z,5.13
2023-02-18T21:29:02.470Z,4.78
2023-02-18T21:31:37.537Z,6.25
2023-02-18T21:34:06.527Z,6.07
2023-02-18T21:36:33.825Z,5.60
2023-02-18T21:39:03.440Z,4.68
2023-02-18T21:41:30.843Z,5.53
2023-02-18T21:43:57.523Z,6.55
2023-02-18T21:46:34.852Z,5.95
2023-02-18T21:49:09.350Z,4.75
2023-02-18T21:51:56.218Z,4.65
2023-02-18T21:54:36.118Z,5.15
2023-02-18T21:57:04.861Z,6.18
2023-02-18T21:59:34.681Z,4.03
2023-02-18T22:02:02.182Z,3.60
2023-02-18T22:04:30.972Z,4.30
2023-02-18T22:06:58.522Z,3.92
2023-02-18T22:09:25.628Z,4.32
2023-02-18T22:11:52.385Z,5.68
2023-02-18T22:14:19.009Z,3.95
2023-02-18T22:16:45.802Z,3.72
2023-02-18T22:19:13.067Z,4.15
2023-02-18T22:21:40.616Z,4.53
2023-02-18T22:24:08.092Z,4.32
2023-02-18T22:26:35.031Z,3.35
2023-02-18T22:29:01.939Z,3.20
2023-02-18T22:31:30.521Z,3.53
2023-02-18T22:33:58.829Z,4.75
2023-02-18T22:36:27.346Z,5.93
2023-02-18T22:38:54.354Z,3.92
2023-02-18T22:41:22.998Z,3.78
2023-02-18T22:43:57.540Z,3.10
2023-02-18T22:46:24.882Z,3.47
2023-02-18T22:48:51.906Z,3.85
2023-02-18T22:51:19.790Z,3.22
2023-02-18T22:53:46.621Z,4.78
2023-02-18T22:56:15.639Z,2.58
2023-02-18T22:58:43.194Z,3.05
2023-02-18T23:01:24.360Z,2.83
2023-02-18T23:03:52.419Z,4.30
2023-02-18T23:06:21.181Z,3.95
2023-02-18T23:08:48.617Z,3.47
2023-02-18T23:11:18.790Z,3.60
2023-02-18T23:14:06.254Z,2.30
2023-02-18T23:16:33.391Z,3.50
2023-02-18T23:18:59.985Z,2.75
2023-02-18T23:21:26.662Z,3.45
2023-02-18T23:23:55.511Z,3.60
2023-02-18T23:26:25.505Z,3.40
2023-02-18T23:28:53.638Z,2.50
2023-02-18T23:31:26.640Z,2.83
2023-02-18T23:33:59.028Z,2.78
2023-02-18T23:38:58.633Z,3.75
2023-02-18T23:41:26.335Z,3.33
2023-02-18T23:43:53.414Z,3.15
2023-02-18T23:46:22.113Z,3.10
2023-02-18T23:48:48.812Z,2.63
2023-02-18T23:51:18.416Z,2.38
2023-02-18T23:53:45.774Z,2.45
2023-02-18T23:56:20.864Z,2.15
2023-02-18T23:58:52.818Z,2.55
